createdAt,value
2018-10-11T00:00:50.429Z,11.36
2018-10-11T00:01:50.451Z,11.36
2018-10-11T00:02:50.412Z,11.24
2018-10-11T00:03:50.418Z,11.36
2018-10-11T00:04:50.384Z,11.36
2018-10-11T00:05:50.391Z,11.32
2018-10-11T00:06:50.386Z,11.29
2018-10-11T00:07:50.356Z,11.39
2018-10-11T00:08:50.340Z,11.37
2018-10-11T00:09:50.352Z,11.49
2018-10-11T00:10:50.319Z,11.37
2018-10-11T00:11:50.332Z,11.39
2018-10-11T00:12:50.295Z,11.42
2018-10-11T00:13:50.446Z,11.35
2018-10-11T00:14:50.311Z,11.27
2018-10-11T00:15:50.266Z,11.35
2018-10-11T00:16:50.253Z,11.32
2018-10-11T00:17:50.240Z,11.37
2018-10-11T00:18:50.228Z,11.25
2018-10-11T00:19:50.262Z,11.22
2018-10-11T00:20:50.208Z,11.09
2018-10-11T00:21:50.195Z,11.04
2018-10-11T00:22:50.189Z,10.99
2018-10-11T00:23:50.195Z,10.99
2018-10-11T00:24:50.168Z,10.91
2018-10-11T00:25:50.157Z,10.91
2018-10-11T00:26:50.165Z,10.92
2018-10-11T00:27:50.131Z,10.85
2018-10-11T00:28:50.121Z,10.92
2018-10-11T00:29:50.131Z,10.78
2018-10-11T00:30:50.202Z,10.82
2018-10-11T00:31:50.089Z,10.82
2018-10-11T00:32:50.072Z,10.79
2018-10-11T00:33:50.095Z,10.73
2018-10-11T00:34:50.054Z,10.63
2018-10-11T00:35:50.051Z,10.63
2018-10-11T00:36:50.044Z,10.61
2018-10-11T00:37:58.357Z,10.61
2018-10-11T00:38:50.038Z,10.59
2018-10-11T00:39:49.995Z,10.55
2018-10-11T00:40:49.987Z,10.56
2018-10-11T00:41:58.147Z,10.55
2018-10-11T00:42:58.442Z,10.55
2018-10-11T00:43:49.972Z,10.67
2018-10-11T00:44:49.941Z,10.60
2018-10-11T00:45:49.933Z,10.63
2018-10-11T00:46:59.465Z,10.60
2018-10-11T00:47:49.907Z,10.60
2018-10-11T00:48:49.891Z,10.61
2018-10-11T00:49:49.883Z,10.60
2018-10-11T00:50:49.881Z,10.59
2018-10-11T00:51:49.893Z,10.60
2018-10-11T00:52:49.856Z,10.56
2018-10-11T00:53:49.847Z,10.53
2018-10-11T00:54:49.830Z,10.60
2018-10-11T00:55:49.813Z,10.55
2018-10-11T00:56:49.831Z,10.56
2018-10-11T00:57:49.799Z,10.42
2018-10-11T00:58:49.831Z,10.48
2018-10-11T00:59:49.789Z,10.45
2018-10-11T01:00:49.791Z,10.45
2018-10-11T01:01:49.755Z,10.41
2018-10-11T01:02:49.739Z,10.38
2018-10-11T01:03:49.742Z,10.38
2018-10-11T01:04:49.761Z,10.36
2018-10-11T01:05:49.704Z,10.27
2018-10-11T01:06:49.700Z,10.27
2018-10-11T01:07:49.695Z,10.23
2018-10-11T01:08:49.676Z,10.27
2018-10-11T01:09:49.715Z,10.23
2018-10-11T01:10:49.650Z,10.29
2018-10-11T01:11:49.655Z,10.17
2018-10-11T01:12:49.663Z,10.23
2018-10-11T01:13:49.619Z,10.25
2018-10-11T01:14:49.626Z,10.20
2018-10-11T01:15:49.625Z,10.14
2018-10-11T01:16:49.606Z,10.11
2018-10-11T01:17:49.581Z,10.07
2018-10-11T01:18:56.540Z,10.14
2018-10-11T01:19:49.553Z,10.07
2018-10-11T01:20:49.591Z,10.09
2018-10-11T01:21:49.547Z,10.07
2018-10-11T01:22:49.539Z,10.11
2018-10-11T01:23:49.560Z,10.05
2018-10-11T01:24:49.498Z,10.04
2018-10-11T01:25:49.512Z,10.01
2018-10-11T01:26:49.475Z,9.99
2018-10-11T01:27:49.462Z,9.91
2018-10-11T01:28:49.455Z,9.96
2018-10-11T01:29:49.528Z,10.05
2018-10-11T01:30:49.453Z,9.97
2018-10-11T01:31:49.433Z,10.02
2018-10-11T01:32:49.416Z,9.96
2018-10-11T01:33:49.395Z,10.04
2018-10-11T01:34:49.392Z,10.01
2018-10-11T01:35:49.407Z,10.07
2018-10-11T01:36:49.372Z,9.94
2018-10-11T01:37:49.396Z,9.94
2018-10-11T01:38:49.401Z,9.91
2018-10-11T01:39:49.338Z,9.99
2018-10-11T01:40:49.353Z,9.94
2018-10-11T01:41:49.317Z,9.89
2018-10-11T01:42:49.295Z,9.91
2018-10-11T01:43:49.291Z,9.94
2018-10-11T01:44:49.305Z,9.93
2018-10-11T01:45:49.264Z,9.97
2018-10-11T01:46:49.249Z,9.93
2018-10-11T01:47:49.412Z,9.91
2018-10-11T01:48:49.251Z,9.94
2018-10-11T01:49:49.226Z,9.93
2018-10-11T01:50:49.234Z,9.96
2018-10-11T01:51:49.198Z,9.90
2018-10-11T01:52:49.184Z,9.81
2018-10-11T01:53:49.179Z,9.81
2018-10-11T01:54:49.171Z,9.78
2018-10-11T01:55:49.182Z,9.87
2018-10-11T01:56:49.280Z,9.84
2018-10-11T01:57:49.131Z,9.81
2018-10-11T01:58:49.115Z,9.79
2018-10-11T01:59:49.108Z,9.89
2018-10-11T02:00:49.145Z,10.07
2018-10-11T02:01:49.098Z,10.02
2018-10-11T02:02:49.077Z,10.05
2018-10-11T02:03:49.076Z,10.05
2018-10-11T02:04:49.052Z,10.05
2018-10-11T02:05:49.062Z,9.97
2018-10-11T02:06:49.029Z,9.91
2018-10-11T02:07:49.034Z,9.93
2018-10-11T02:08:49.004Z,9.96
2018-10-11T02:09:49.008Z,10.04
2018-10-11T02:10:49.027Z,10.22
2018-10-11T02:11:49.013Z,10.29
2018-10-11T02:12:48.961Z,10.29
2018-10-11T02:13:48.952Z,10.12
2018-10-11T02:14:48.944Z,10.17
2018-10-11T02:15:48.932Z,10.22
2018-10-11T02:16:48.950Z,10.22
2018-10-11T02:17:48.903Z,10.20
2018-10-11T02:18:48.892Z,10.11
2018-10-11T02:19:48.880Z,10.11
2018-10-11T02:20:48.879Z,10.01
2018-10-11T02:21:48.891Z,10.01
2018-10-11T02:22:48.846Z,10.08
2018-10-11T02:23:48.837Z,10.01
2018-10-11T02:24:48.852Z,9.91
2018-10-11T02:25:48.814Z,9.90
2018-10-11T02:26:48.963Z,9.91
2018-10-11T02:27:48.791Z,9.96
2018-10-11T02:28:48.785Z,9.90
2018-10-11T02:29:48.773Z,9.89
2018-10-11T02:30:48.773Z,9.94
2018-10-11T02:31:48.842Z,9.89
2018-10-11T02:32:48.737Z,9.79
2018-10-11T02:33:48.737Z,9.79
2018-10-11T02:34:48.715Z,9.76
2018-10-11T02:35:48.723Z,9.78
2018-10-11T02:36:48.701Z,9.75
2018-10-11T02:37:48.692Z,9.81
2018-10-11T02:38:48.674Z,9.79
2018-10-11T02:39:48.676Z,9.83
2018-10-11T02:40:48.681Z,9.83
2018-10-11T02:41:48.642Z,9.79
2018-10-11T02:42:48.629Z,9.83
2018-10-11T02:43:48.627Z,9.75
2018-10-11T02:44:48.610Z,9.76
2018-10-11T02:45:48.616Z,9.89
2018-10-11T02:46:48.617Z,9.79
2018-10-11T02:47:48.685Z,9.74
2018-10-11T02:48:48.556Z,9.72
2018-10-11T02:49:48.545Z,9.74
2018-10-11T02:50:48.535Z,9.68
2018-10-11T02:51:48.556Z,9.64
2018-10-11T02:52:48.514Z,9.57
2018-10-11T02:53:48.530Z,9.48
2018-10-11T02:54:48.501Z,9.51
2018-10-11T02:55:48.479Z,9.50
2018-10-11T02:56:48.471Z,9.48
2018-10-11T02:57:48.456Z,9.46
2018-10-11T02:58:48.478Z,9.48
2018-10-11T02:59:48.442Z,9.43
2018-10-11T03:00:48.422Z,9.54
2018-10-11T03:01:48.414Z,9.51
2018-10-11T03:02:48.401Z,9.51
2018-10-11T03:03:48.428Z,9.57
2018-10-11T03:04:48.378Z,9.56
2018-10-11T03:05:48.374Z,9.58
2018-10-11T03:06:48.360Z,9.56
2018-10-11T03:07:48.346Z,9.60
2018-10-11T03:08:48.357Z,9.54
2018-10-11T03:09:48.331Z,9.57
2018-10-11T03:10:48.318Z,9.51
2018-10-11T03:11:48.300Z,9.50
2018-10-11T03:12:48.288Z,9.51
2018-10-11T03:13:48.316Z,9.54
2018-10-11T03:14:48.277Z,9.46
2018-10-11T03:15:48.256Z,9.48
2018-10-11T03:16:48.244Z,9.54
2018-10-11T03:17:48.254Z,9.51
2018-10-11T03:18:48.245Z,9.57
2018-10-11T03:19:48.213Z,9.54
2018-10-11T03:20:48.215Z,9.47
2018-10-11T03:21:48.197Z,9.61
2018-10-11T03:22:48.178Z,9.60
2018-10-11T03:23:48.193Z,9.61
2018-10-11T03:24:48.164Z,9.46
2018-10-11T03:25:48.167Z,9.50
2018-10-11T03:26:48.146Z,9.53
2018-10-11T03:27:48.126Z,9.40
2018-10-11T03:28:48.112Z,9.43
2018-10-11T03:29:48.104Z,9.48
2018-10-11T03:30:48.114Z,9.50
2018-10-11T03:31:48.080Z,9.54
2018-10-11T03:32:48.077Z,9.57
2018-10-11T03:33:48.065Z,9.58
2018-10-11T03:34:48.044Z,9.53
2018-10-11T03:35:48.056Z,9.50
2018-10-11T03:36:48.031Z,9.51
2018-10-11T03:37:48.018Z,9.50
2018-10-11T03:38:48.001Z,9.51
2018-10-11T03:39:47.990Z,9.53
2018-10-11T03:40:47.997Z,9.40
2018-10-11T03:41:47.970Z,9.40
2018-10-11T03:42:47.958Z,9.35
2018-10-11T03:43:47.966Z,9.42
2018-10-11T03:44:47.961Z,9.36
2018-10-11T03:45:47.921Z,9.32
2018-10-11T03:46:47.913Z,9.20
2018-10-11T03:47:47.914Z,9.24
2018-10-11T03:48:47.908Z,9.18
2018-10-11T03:49:47.883Z,9.24
2018-10-11T03:50:47.869Z,9.18
2018-10-11T03:51:47.855Z,9.18
2018-10-11T03:52:47.846Z,9.17
2018-10-11T03:53:47.863Z,9.13
2018-10-11T03:54:47.831Z,9.20
2018-10-11T03:55:47.809Z,9.24
2018-10-11T03:56:47.803Z,9.23
2018-10-11T03:57:47.795Z,9.24
2018-10-11T03:58:47.802Z,9.15
2018-10-11T03:59:47.769Z,9.13
2018-10-11T04:00:47.758Z,9.14
2018-10-11T04:01:47.768Z,9.11
2018-10-11T04:02:47.737Z,9.02
2018-10-11T04:03:47.731Z,9.05
2018-10-11T04:04:47.709Z,8.89
2018-10-11T04:05:47.700Z,8.87
2018-10-11T04:06:47.717Z,8.95
2018-10-11T04:07:47.700Z,8.86
2018-10-11T04:08:47.669Z,9.10
2018-10-11T04:09:47.660Z,9.18
2018-10-11T04:10:47.667Z,9.11
2018-10-11T04:11:47.647Z,9.10
2018-10-11T04:12:47.623Z,9.02
2018-10-11T04:13:47.611Z,9.11
2018-10-11T04:14:47.600Z,9.08
2018-10-11T04:15:47.654Z,9.10
2018-10-11T04:16:47.584Z,9.05
2018-10-11T04:17:47.570Z,8.98
2018-10-11T04:18:47.559Z,8.92
2018-10-11T04:19:47.543Z,8.95
2018-10-11T04:20:47.557Z,8.81
2018-10-11T04:21:47.531Z,8.87
2018-10-11T04:22:47.510Z,8.80
2018-10-11T04:23:47.534Z,8.73
2018-10-11T04:24:47.496Z,8.74
2018-10-11T04:25:47.478Z,8.77
2018-10-11T04:26:47.490Z,8.79
2018-10-11T04:27:47.456Z,8.81
2018-10-11T04:28:47.486Z,8.84
2018-10-11T04:29:47.442Z,8.89
2018-10-11T04:30:47.422Z,8.91
2018-10-11T04:31:47.424Z,8.83
2018-10-11T04:32:47.414Z,8.83
2018-10-11T04:33:47.418Z,8.73
2018-10-11T04:34:47.404Z,8.77
2018-10-11T04:35:47.369Z,8.77
2018-10-11T04:36:47.357Z,8.89
2018-10-11T04:37:47.343Z,8.76
2018-10-11T04:38:47.340Z,8.77
2018-10-11T04:39:47.344Z,8.76
2018-10-11T04:40:47.311Z,8.74
2018-10-11T04:41:47.335Z,8.76
2018-10-11T04:42:47.348Z,8.80
2018-10-11T04:43:47.278Z,8.76
2018-10-11T04:44:47.299Z,8.65
2018-10-11T04:45:47.257Z,8.65
2018-10-11T04:46:47.244Z,8.66
2018-10-11T04:47:47.238Z,8.61
2018-10-11T04:48:47.277Z,8.61
2018-10-11T04:49:47.215Z,8.55
2018-10-11T04:50:47.202Z,8.62
2018-10-11T04:51:47.219Z,8.59
2018-10-11T04:52:47.177Z,8.65
2018-10-11T04:53:47.481Z,8.63
2018-10-11T04:54:47.156Z,8.52
2018-10-11T04:55:47.145Z,8.52
2018-10-11T04:56:47.142Z,8.53
2018-10-11T04:57:47.123Z,8.47
2018-10-11T04:58:47.134Z,8.47
2018-10-11T04:59:47.133Z,8.47
2018-10-11T05:00:47.090Z,8.50
2018-10-11T05:01:47.079Z,8.43
2018-10-11T05:02:47.072Z,8.29
2018-10-11T05:03:47.090Z,8.28
2018-10-11T05:04:47.064Z,8.26
2018-10-11T05:05:47.044Z,8.34
2018-10-11T05:06:47.023Z,8.41
2018-10-11T05:07:47.036Z,8.48
2018-10-11T05:08:47.012Z,8.41
2018-10-11T05:09:46.997Z,8.48
2018-10-11T05:10:46.978Z,8.38
2018-10-11T05:11:46.974Z,8.43
2018-10-11T05:12:46.996Z,8.52
2018-10-11T05:13:46.970Z,8.38
2018-10-11T05:14:46.935Z,8.45
2018-10-11T05:15:46.927Z,8.43
2018-10-11T05:16:46.912Z,8.55
2018-10-11T05:17:46.907Z,8.44
2018-10-11T05:18:46.927Z,8.50
2018-10-11T05:19:46.885Z,8.47
2018-10-11T05:20:46.884Z,8.52
2018-10-11T05:21:46.858Z,8.50
2018-10-11T05:22:46.852Z,8.47
2018-10-11T05:23:46.889Z,8.50
2018-10-11T05:24:46.827Z,8.48
2018-10-11T05:25:46.817Z,8.47
2018-10-11T05:26:46.803Z,8.47
2018-10-11T05:27:46.796Z,8.52
2018-10-11T05:28:46.804Z,8.47
2018-10-11T05:29:46.771Z,8.44
2018-10-11T05:30:46.766Z,8.52
2018-10-11T05:31:46.753Z,8.45
2018-10-11T05:32:46.747Z,8.58
2018-10-11T05:33:46.753Z,8.50
2018-10-11T05:34:46.720Z,8.48
2018-10-11T05:35:46.707Z,8.55
2018-10-11T05:36:46.703Z,8.44
2018-10-11T05:37:46.682Z,8.44
2018-10-11T05:38:46.693Z,8.44
2018-10-11T05:39:46.667Z,8.45
2018-10-11T05:40:46.653Z,8.37
2018-10-11T05:41:46.639Z,8.37
2018-10-11T05:42:46.633Z,8.44
2018-10-11T05:43:46.643Z,8.44
2018-10-11T05:44:46.607Z,8.43
2018-10-11T05:45:46.598Z,8.44
2018-10-11T05:46:46.606Z,8.37
2018-10-11T05:47:46.585Z,8.40
2018-10-11T05:48:46.591Z,8.33
2018-10-11T05:49:46.565Z,8.33
2018-10-11T05:50:46.574Z,8.26
2018-10-11T05:51:46.553Z,8.41
2018-10-11T05:52:46.517Z,8.38
2018-10-11T05:53:46.528Z,8.47
2018-10-11T05:54:46.505Z,8.41
2018-10-11T05:55:46.492Z,8.38
2018-10-11T05:56:46.535Z,8.38
2018-10-11T05:57:46.465Z,8.36
2018-10-11T05:58:46.462Z,8.29
2018-10-11T05:59:46.450Z,8.40
2018-10-11T06:00:46.463Z,8.29
2018-10-11T06:01:46.418Z,8.33
2018-10-11T06:02:46.417Z,8.50
2018-10-11T06:03:46.427Z,8.41
2018-10-11T06:04:46.386Z,8.47
2018-10-11T06:05:46.382Z,8.50
2018-10-11T06:06:46.363Z,8.47
2018-10-11T06:07:46.353Z,8.52
2018-10-11T06:08:46.364Z,8.52
2018-10-11T06:09:46.338Z,8.55
2018-10-11T06:10:46.320Z,8.61
2018-10-11T06:11:46.328Z,8.58
2018-10-11T06:12:46.304Z,8.61
2018-10-11T06:13:46.311Z,8.66
2018-10-11T06:14:46.284Z,8.58
2018-10-11T06:15:46.277Z,8.66
2018-10-11T06:16:46.254Z,8.79
2018-10-11T06:17:46.348Z,8.74
2018-10-11T06:18:46.231Z,8.79
2018-10-11T06:19:46.232Z,8.70
2018-10-11T06:20:46.212Z,8.73
2018-10-11T06:21:46.199Z,8.73
2018-10-11T06:22:46.223Z,8.76
2018-10-11T06:23:46.177Z,8.84
2018-10-11T06:24:46.189Z,8.87
2018-10-11T06:25:46.159Z,8.81
2018-10-11T06:26:46.143Z,8.91
2018-10-11T06:27:46.233Z,8.83
2018-10-11T06:28:46.187Z,8.83
2018-10-11T06:29:46.133Z,8.91
2018-10-11T06:30:46.102Z,8.91
2018-10-11T06:31:46.094Z,8.96
2018-10-11T06:32:46.105Z,8.96
2018-10-11T06:33:46.069Z,8.96
2018-10-11T06:34:46.081Z,9.08
2018-10-11T06:35:46.112Z,9.02
2018-10-11T06:36:46.046Z,9.01
2018-10-11T06:37:46.050Z,9.08
2018-10-11T06:38:46.058Z,9.08
2018-10-11T06:39:46.009Z,9.04
2018-10-11T06:40:45.988Z,9.04
2018-10-11T06:41:46.042Z,9.11
2018-10-11T06:42:46.071Z,9.04
2018-10-11T06:43:45.993Z,9.13
2018-10-11T06:44:45.944Z,9.17
2018-10-11T06:45:45.938Z,9.17
2018-10-11T06:46:45.929Z,9.23
2018-10-11T06:47:45.912Z,9.20
2018-10-11T06:48:45.948Z,9.20
2018-10-11T06:49:45.931Z,9.32
2018-10-11T06:50:45.879Z,9.33
2018-10-11T06:51:45.869Z,9.39
2018-10-11T06:52:45.858Z,9.43
2018-10-11T06:53:45.867Z,9.42
2018-10-11T06:54:45.836Z,9.46
2018-10-11T06:55:45.886Z,9.54
2018-10-11T06:56:45.812Z,9.50
2018-10-11T06:57:45.802Z,9.47
2018-10-11T06:58:45.813Z,9.47
2018-10-11T06:59:45.804Z,9.54
2018-10-11T07:00:45.767Z,9.50
2018-10-11T07:01:45.835Z,9.50
2018-10-11T07:02:45.750Z,9.50
2018-10-11T07:03:45.740Z,9.61
2018-10-11T07:04:45.746Z,9.60
2018-10-11T07:05:45.715Z,9.58
2018-10-11T07:06:45.704Z,9.74
2018-10-11T07:07:45.709Z,9.76
2018-10-11T07:08:45.710Z,9.81
2018-10-11T07:09:45.669Z,9.81
2018-10-11T07:10:45.657Z,9.93
2018-10-11T07:11:45.647Z,9.93
2018-10-11T07:12:45.641Z,9.97
2018-10-11T07:13:45.723Z,9.94
2018-10-11T07:14:45.615Z,9.90
2018-10-11T07:15:45.624Z,10.01
2018-10-11T07:16:45.594Z,10.08
2018-10-11T07:17:45.581Z,10.18
2018-10-11T07:18:45.567Z,10.15
2018-10-11T07:19:45.598Z,10.26
2018-10-11T07:20:45.548Z,10.20
2018-10-11T07:21:45.535Z,10.25
2018-10-11T07:22:45.523Z,10.44
2018-10-11T07:23:45.524Z,10.45
2018-10-11T07:24:45.592Z,10.55
2018-10-11T07:25:45.557Z,10.45
2018-10-11T07:26:45.486Z,10.56
2018-10-11T07:27:45.491Z,10.52
2018-10-11T07:28:45.464Z,10.67
2018-10-11T07:29:45.469Z,10.64
2018-10-11T07:30:45.438Z,10.76
2018-10-11T07:31:45.436Z,10.88
2018-10-11T07:32:45.430Z,10.89
2018-10-11T07:33:45.403Z,11.00
2018-10-11T07:34:45.549Z,11.00
2018-10-11T07:35:45.383Z,11.07
2018-10-11T07:36:45.368Z,11.17
2018-10-11T07:37:45.379Z,11.32
2018-10-11T07:38:45.349Z,11.29
2018-10-11T07:39:45.352Z,11.42
2018-10-11T07:40:45.386Z,11.43
2018-10-11T07:41:45.317Z,11.44
2018-10-11T07:42:45.360Z,11.51
2018-10-11T07:43:45.291Z,11.60
2018-10-11T07:44:45.279Z,11.60
2018-10-11T07:45:45.289Z,11.72
2018-10-11T07:46:45.280Z,11.72
2018-10-11T07:47:45.248Z,11.85
2018-10-11T07:48:45.242Z,11.85
2018-10-11T07:49:45.230Z,12.02
2018-10-11T07:50:45.212Z,12.04
2018-10-11T07:51:45.237Z,12.09
2018-10-11T07:52:45.219Z,12.14
2018-10-11T07:53:45.178Z,12.24
2018-10-11T07:54:45.170Z,12.29
2018-10-11T07:55:45.159Z,12.41
2018-10-11T07:56:45.210Z,12.50
2018-10-11T07:57:45.425Z,12.53
2018-10-11T07:58:45.127Z,12.56
2018-10-11T07:59:45.129Z,12.64
2018-10-11T08:00:45.100Z,12.65
2018-10-11T08:01:45.180Z,12.79
2018-10-11T08:02:45.079Z,12.90
2018-10-11T08:03:45.098Z,12.96
2018-10-11T08:04:45.060Z,13.04
2018-10-11T08:05:45.049Z,13.12
2018-10-11T08:06:45.071Z,13.22
2018-10-11T08:07:45.122Z,13.32
2018-10-11T08:08:45.036Z,13.38
2018-10-11T08:09:45.021Z,13.52
2018-10-11T08:10:45.055Z,13.52
2018-10-11T08:11:45.152Z,13.54
2018-10-11T08:12:44.969Z,13.60
2018-10-11T08:13:44.987Z,13.75
2018-10-11T08:14:44.955Z,13.81
2018-10-11T08:15:44.939Z,13.95
2018-10-11T08:16:45.108Z,13.97
2018-10-11T08:17:45.251Z,14.10
2018-10-11T08:18:45.013Z,14.20
2018-10-11T08:19:44.989Z,14.28
2018-10-11T08:20:44.883Z,14.43
2018-10-11T08:21:44.950Z,14.45
2018-10-11T08:22:44.861Z,14.55
2018-10-11T08:23:44.865Z,14.57
2018-10-11T08:24:45.060Z,14.68
2018-10-11T08:25:45.186Z,14.70
2018-10-11T08:26:44.951Z,14.81
2018-10-11T08:27:44.826Z,14.73
2018-10-11T08:28:44.812Z,14.81
2018-10-11T08:29:44.778Z,14.88
2018-10-11T08:30:44.776Z,14.92
2018-10-11T08:31:44.876Z,15.09
2018-10-11T08:32:44.762Z,15.21
2018-10-11T08:33:44.737Z,15.25
2018-10-11T08:34:44.761Z,15.32
2018-10-11T08:35:44.713Z,15.50
2018-10-11T08:36:44.699Z,15.60
2018-10-11T08:37:44.728Z,15.54
2018-10-11T08:38:44.679Z,15.64
2018-10-11T08:39:44.699Z,15.67
2018-10-11T08:40:44.659Z,15.76
2018-10-11T08:41:44.648Z,15.89
2018-10-11T08:42:44.641Z,15.97
2018-10-11T08:43:44.661Z,16.17
2018-10-11T08:44:44.641Z,16.30
2018-10-11T08:45:44.600Z,16.46
2018-10-11T08:46:44.592Z,16.57
2018-10-11T08:47:44.580Z,16.61
2018-10-11T08:48:44.590Z,16.75
2018-10-11T08:49:44.585Z,16.86
2018-10-11T08:50:44.561Z,16.88
2018-10-11T08:51:44.535Z,16.98
2018-10-11T08:52:44.528Z,17.03
2018-10-11T08:53:44.556Z,17.15
2018-10-11T08:54:44.525Z,17.15
2018-10-11T08:55:44.639Z,17.38
2018-10-11T08:56:44.480Z,17.43
2018-10-11T08:57:44.467Z,17.56
2018-10-11T08:58:44.478Z,17.63
2018-10-11T08:59:44.563Z,17.68
2018-10-11T09:00:44.435Z,17.79
2018-10-11T09:01:44.502Z,17.96
2018-10-11T09:02:44.410Z,17.99
2018-10-11T09:03:44.636Z,18.11
2018-10-11T09:04:44.408Z,18.26
2018-10-11T09:05:44.379Z,18.36
2018-10-11T09:06:44.397Z,18.36
2018-10-11T09:07:44.355Z,18.51
2018-10-11T09:08:44.361Z,18.51
2018-10-11T09:09:44.356Z,18.62
2018-10-11T09:10:44.341Z,18.78
2018-10-11T09:11:44.317Z,18.92
2018-10-11T09:12:44.304Z,19.02
2018-10-11T09:13:44.289Z,19.06
2018-10-11T09:14:44.317Z,19.21
2018-10-11T09:15:44.268Z,19.36
2018-10-11T09:16:44.255Z,19.48
2018-10-11T09:17:44.244Z,19.66
2018-10-11T09:18:44.238Z,19.74
2018-10-11T09:19:44.248Z,19.92
2018-10-11T09:20:44.224Z,19.99
2018-10-11T09:21:44.204Z,20.03
2018-10-11T09:22:44.191Z,20.16
2018-10-11T09:23:44.182Z,20.11
2018-10-11T09:24:44.211Z,20.21
2018-10-11T09:25:44.161Z,20.36
2018-10-11T09:26:44.147Z,20.50
2018-10-11T09:27:44.135Z,20.57
2018-10-11T09:28:44.124Z,20.57
2018-10-11T09:29:44.152Z,20.67
2018-10-11T09:30:44.104Z,20.73
2018-10-11T09:31:44.091Z,20.80
2018-10-11T09:32:44.105Z,20.80
2018-10-11T09:33:44.068Z,20.97
2018-10-11T09:34:44.089Z,20.98
2018-10-11T09:35:44.048Z,21.14
2018-10-11T09:36:44.035Z,21.31
2018-10-11T09:37:44.024Z,21.42
2018-10-11T09:38:44.030Z,21.44
2018-10-11T09:39:44.028Z,21.43
2018-10-11T09:40:44.016Z,21.34
2018-10-11T09:41:43.981Z,21.67
2018-10-11T09:42:43.986Z,21.72
2018-10-11T09:43:43.966Z,21.79
2018-10-11T09:44:43.946Z,22.00
2018-10-11T09:45:43.973Z,22.06
2018-10-11T09:46:43.924Z,22.07
2018-10-11T09:47:43.918Z,22.10
2018-10-11T09:48:43.977Z,22.25
2018-10-11T09:49:43.893Z,22.18
2018-10-11T09:50:43.882Z,22.14
2018-10-11T09:51:43.870Z,22.18
2018-10-11T09:52:43.861Z,22.30
2018-10-11T09:53:43.905Z,22.42
2018-10-11T09:54:43.857Z,22.49
2018-10-11T09:55:43.834Z,22.61
2018-10-11T09:56:43.911Z,22.65
2018-10-11T09:57:43.806Z,22.64
2018-10-11T09:58:43.817Z,22.47
2018-10-11T09:59:43.816Z,22.46
2018-10-11T10:00:43.786Z,22.54
2018-10-11T10:01:43.763Z,22.64
2018-10-11T10:02:43.804Z,22.61
2018-10-11T10:03:43.742Z,22.42
2018-10-11T10:04:43.728Z,22.49
2018-10-11T10:05:43.715Z,22.57
2018-10-11T10:06:43.705Z,22.70
2018-10-11T10:07:43.737Z,22.55
2018-10-11T10:08:43.683Z,22.47
2018-10-11T10:09:43.678Z,22.47
2018-10-11T10:10:43.660Z,22.55
2018-10-11T10:11:43.652Z,22.57
2018-10-11T10:12:43.658Z,22.65
2018-10-11T10:13:43.659Z,22.65
2018-10-11T10:14:43.615Z,22.67
2018-10-11T10:15:43.764Z,22.67
2018-10-11T10:16:43.593Z,22.73
2018-10-11T10:17:43.581Z,22.83
2018-10-11T10:18:43.601Z,22.49
2018-10-11T10:19:43.566Z,22.07
2018-10-11T10:20:43.566Z,22.18
2018-10-11T10:21:43.592Z,22.14
2018-10-11T10:22:43.527Z,22.25
2018-10-11T10:23:43.553Z,22.55
2018-10-11T10:24:43.505Z,22.68
2018-10-11T10:25:43.519Z,22.58
2018-10-11T10:26:43.571Z,22.70
2018-10-11T10:27:43.475Z,22.83
2018-10-11T10:28:43.466Z,22.90
2018-10-11T10:29:43.451Z,22.91
2018-10-11T10:30:43.465Z,22.91
2018-10-11T10:31:43.440Z,22.90
2018-10-11T10:32:43.417Z,23.00
2018-10-11T10:33:43.406Z,23.10
2018-10-11T10:34:43.396Z,23.19
2018-10-11T10:35:43.406Z,23.19
2018-10-11T10:36:43.375Z,23.20
2018-10-11T10:37:43.386Z,23.20
2018-10-11T10:38:43.351Z,23.25
2018-10-11T10:39:43.396Z,23.23
2018-10-11T10:40:43.359Z,23.25
2018-10-11T10:41:43.319Z,23.35
2018-10-11T10:42:43.308Z,23.32
2018-10-11T10:43:43.306Z,23.32
2018-10-11T10:44:43.319Z,23.33
2018-10-11T10:45:43.276Z,23.40
2018-10-11T10:46:43.268Z,23.32
2018-10-11T10:47:43.269Z,23.43
2018-10-11T10:48:43.286Z,23.51
2018-10-11T10:49:43.282Z,23.55
2018-10-11T10:50:43.224Z,23.57
2018-10-11T10:51:43.213Z,23.54
2018-10-11T10:52:43.218Z,23.54
2018-10-11T10:53:43.196Z,23.61
2018-10-11T10:54:43.299Z,23.66
2018-10-11T10:55:43.180Z,23.66
2018-10-11T10:56:43.178Z,23.65
2018-10-11T10:57:43.149Z,23.70
2018-10-11T10:58:43.147Z,23.58
2018-10-11T10:59:43.164Z,23.66
2018-10-11T11:00:43.125Z,23.61
2018-10-11T11:01:43.117Z,23.66
2018-10-11T11:02:43.094Z,23.68
2018-10-11T11:03:43.082Z,23.58
2018-10-11T11:04:43.122Z,23.57
2018-10-11T11:05:43.087Z,23.68
2018-10-11T11:06:43.068Z,23.68
2018-10-11T11:07:43.076Z,23.68
2018-10-11T11:08:43.028Z,23.75
2018-10-11T11:09:43.017Z,23.68
2018-10-11T11:10:43.006Z,23.66
2018-10-11T11:11:42.998Z,23.87
2018-10-11T11:12:43.002Z,23.95
2018-10-11T11:13:42.973Z,24.05
2018-10-11T11:14:42.978Z,23.98
2018-10-11T11:15:42.960Z,24.03
2018-10-11T11:16:42.941Z,24.05
2018-10-11T11:17:42.969Z,24.18
2018-10-11T11:18:42.936Z,24.03
2018-10-11T11:19:42.908Z,24.10
2018-10-11T11:20:42.901Z,24.15
2018-10-11T11:21:42.895Z,24.09
2018-10-11T11:22:42.897Z,24.13
2018-10-11T11:23:42.864Z,24.21
2018-10-11T11:24:42.862Z,24.22
2018-10-11T11:25:42.842Z,24.09
2018-10-11T11:26:42.833Z,24.10
2018-10-11T11:27:42.847Z,24.25
2018-10-11T11:28:42.809Z,24.12
2018-10-11T11:29:42.798Z,23.98
2018-10-11T11:30:42.796Z,23.98
2018-10-11T11:31:42.778Z,24.18
2018-10-11T11:32:42.787Z,24.16
2018-10-11T11:33:42.757Z,24.22
2018-10-11T11:34:42.767Z,24.09
2018-10-11T11:35:42.737Z,24.09
2018-10-11T11:36:42.731Z,24.20
2018-10-11T11:37:42.714Z,24.30
2018-10-11T11:38:42.722Z,24.32
2018-10-11T11:39:42.713Z,24.50
2018-10-11T11:40:42.706Z,24.39
2018-10-11T11:41:42.687Z,24.60
2018-10-11T11:42:42.664Z,24.52
2018-10-11T11:43:42.646Z,24.35
2018-10-11T11:44:42.635Z,24.52
2018-10-11T11:45:42.685Z,24.46
2018-10-11T11:46:42.644Z,24.50
2018-10-11T11:47:42.611Z,24.47
2018-10-11T11:48:42.592Z,24.37
2018-10-11T11:49:42.590Z,24.40
2018-10-11T11:50:42.572Z,24.50
2018-10-11T11:51:42.587Z,24.57
2018-10-11T11:52:42.547Z,24.50
2018-10-11T11:53:42.547Z,24.60
2018-10-11T11:54:42.626Z,24.60
2018-10-11T11:55:42.552Z,24.50
2018-10-11T11:56:42.570Z,24.52
2018-10-11T11:57:42.502Z,24.53
2018-10-11T11:58:42.488Z,24.57
2018-10-11T11:59:42.483Z,24.40
2018-10-11T12:00:42.492Z,24.40
2018-10-11T12:01:42.458Z,24.32
2018-10-11T12:02:42.535Z,24.40
2018-10-11T12:03:42.427Z,24.39
2018-10-11T12:04:42.418Z,24.37
2018-10-11T12:05:42.429Z,24.42
2018-10-11T12:06:42.394Z,24.43
2018-10-11T12:07:42.387Z,24.42
2018-10-11T12:08:42.424Z,24.47
2018-10-11T12:09:42.365Z,24.46
2018-10-11T12:10:42.406Z,24.57
2018-10-11T12:11:42.340Z,24.64
2018-10-11T12:12:42.333Z,24.52
2018-10-11T12:13:42.361Z,24.60
2018-10-11T12:14:42.308Z,24.49
2018-10-11T12:15:42.295Z,24.69
2018-10-11T12:16:42.397Z,24.64
2018-10-11T12:17:42.296Z,24.71
2018-10-11T12:18:42.287Z,24.73
2018-10-11T12:19:42.256Z,24.76
2018-10-11T12:20:42.264Z,24.65
2018-10-11T12:21:42.243Z,24.73
2018-10-11T12:22:42.226Z,24.76
2018-10-11T12:23:42.252Z,24.83
2018-10-11T12:24:42.225Z,24.67
2018-10-11T12:25:42.226Z,24.52
2018-10-11T12:26:42.176Z,24.64
2018-10-11T12:27:42.169Z,24.67
2018-10-11T12:28:42.400Z,24.71
2018-10-11T12:29:42.149Z,24.83
2018-10-11T12:30:42.158Z,24.78
2018-10-11T12:31:42.122Z,24.71
2018-10-11T12:32:42.128Z,24.71
2018-10-11T12:33:42.126Z,24.73
2018-10-11T12:34:42.093Z,24.76
2018-10-11T12:35:42.101Z,24.90
2018-10-11T12:36:42.078Z,24.84
2018-10-11T12:37:42.077Z,24.84
2018-10-11T12:38:42.130Z,24.69
2018-10-11T12:39:42.035Z,24.64
2018-10-11T12:40:42.059Z,24.61
2018-10-11T12:41:42.157Z,24.58
2018-10-11T12:42:42.002Z,24.65
2018-10-11T12:43:41.990Z,24.64
2018-10-11T12:44:41.982Z,24.68
2018-10-11T12:45:42.011Z,24.65
2018-10-11T12:46:42.167Z,24.61
2018-10-11T12:47:41.947Z,24.58
2018-10-11T12:48:41.960Z,24.57
2018-10-11T12:49:45.360Z,24.67
2018-10-11T12:50:41.933Z,24.71
2018-10-11T12:51:42.003Z,24.69
2018-10-11T12:52:41.896Z,24.65
2018-10-11T12:53:45.095Z,24.64
2018-10-11T12:54:41.878Z,24.64
2018-10-11T12:55:41.873Z,24.53
2018-10-11T12:56:42.010Z,24.43
2018-10-11T12:57:41.916Z,24.39
2018-10-11T12:58:41.861Z,24.42
2018-10-11T12:59:41.819Z,24.50
2018-10-11T13:00:41.863Z,24.62
2018-10-11T13:01:41.793Z,24.58
2018-10-11T13:02:41.862Z,24.52
2018-10-11T13:03:41.778Z,24.39